createdAt,value
2023-03-11T00:02:15.767Z,83.05
2023-03-11T00:04:42.633Z,83.72
2023-03-11T00:07:09.975Z,83.21
2023-03-11T00:09:36.715Z,82.31
2023-03-11T00:12:03.971Z,83.69
2023-03-11T00:14:30.479Z,83.02
2023-03-11T00:16:57.142Z,82.40
2023-03-11T00:19:23.653Z,83.45
2023-03-11T00:21:50.179Z,83.32
2023-03-11T00:24:16.633Z,84.12
2023-03-11T00:26:43.330Z,84.25
2023-03-11T00:29:09.822Z,83.46
2023-03-11T00:31:36.279Z,83.35
2023-03-11T00:34:02.834Z,84.01
2023-03-11T00:36:36.698Z,82.99
2023-03-11T00:39:06.713Z,82.42
2023-03-11T00:41:34.550Z,81.83
2023-03-11T00:44:01.555Z,83.92
2023-03-11T00:46:29.806Z,83.38
2023-03-11T00:48:56.813Z,81.11
2023-03-11T00:51:23.292Z,82.61
2023-03-11T00:53:49.757Z,81.11
2023-03-11T00:56:16.432Z,82.41
2023-03-11T00:58:44.407Z,81.87
2023-03-11T01:01:13.769Z,81.40
2023-03-11T01:03:40.664Z,80.49
2023-03-11T01:06:07.606Z,81.20
2023-03-11T01:08:34.410Z,81.47
2023-03-11T01:11:01.484Z,81.83
2023-03-11T01:13:29.114Z,81.77
2023-03-11T01:15:56.492Z,80.75
2023-03-11T01:18:23.438Z,80.16
2023-03-11T01:20:50.414Z,80.58
2023-03-11T01:23:17.691Z,81.02
2023-03-11T01:25:44.201Z,80.07
2023-03-11T01:28:11.295Z,82.78
2023-03-11T01:30:39.960Z,83.14
2023-03-11T01:33:07.642Z,82.87
2023-03-11T01:35:35.426Z,84.13
2023-03-11T01:38:01.885Z,83.11
2023-03-11T01:40:37.332Z,83.47
2023-03-11T01:43:06.263Z,84.04
2023-03-11T01:45:41.756Z,83.14
2023-03-11T01:48:09.738Z,83.32
2023-03-11T01:50:40.387Z,84.26
2023-03-11T01:53:07.319Z,82.53
2023-03-11T01:55:34.195Z,83.69
2023-03-11T01:58:03.435Z,83.35
2023-03-11T02:00:29.917Z,85.21
2023-03-11T02:02:58.784Z,84.01
2023-03-11T02:05:25.672Z,83.96
2023-03-11T02:07:54.039Z,83.07
2023-03-11T02:10:20.756Z,82.56
2023-03-11T02:12:49.062Z,83.90
2023-03-11T02:15:16.447Z,84.49
2023-03-11T02:17:43.475Z,83.59
2023-03-11T02:20:28.770Z,84.78
2023-03-11T02:22:57.246Z,84.16
2023-03-11T02:25:46.058Z,84.17
2023-03-11T02:28:14.271Z,83.88
2023-03-11T02:30:42.647Z,84.50
2023-03-11T02:33:09.910Z,82.78
2023-03-11T02:35:36.935Z,85.08
2023-03-11T02:38:03.484Z,83.23
2023-03-11T02:41:00.420Z,83.33
2023-03-11T02:43:43.972Z,82.70
2023-03-11T02:46:10.900Z,82.91
2023-03-11T02:48:37.999Z,81.85
2023-03-11T02:51:04.840Z,82.56
2023-03-11T02:53:35.640Z,81.96
2023-03-11T02:56:02.106Z,83.78
2023-03-11T02:58:28.540Z,82.90
2023-03-11T03:00:55.142Z,84.11
2023-03-11T03:03:21.640Z,83.52
2023-03-11T03:05:48.255Z,85.23
2023-03-11T03:08:14.711Z,83.36
2023-03-11T03:10:41.193Z,83.53
2023-03-11T03:13:07.740Z,83.02
2023-03-11T03:15:34.241Z,81.75
2023-03-11T03:18:00.683Z,81.59
2023-03-11T03:20:27.185Z,82.04
2023-03-11T03:22:53.673Z,80.93
2023-03-11T03:25:20.141Z,81.30
2023-03-11T03:27:46.631Z,83.00
2023-03-11T03:30:13.236Z,83.27
2023-03-11T03:32:39.813Z,83.42
2023-03-11T03:35:06.972Z,81.85
2023-03-11T03:37:35.478Z,82.77
2023-03-11T03:40:02.418Z,84.03
2023-03-11T03:42:29.389Z,83.24
2023-03-11T03:44:55.844Z,84.12
2023-03-11T03:47:22.333Z,81.52
2023-03-11T03:49:48.898Z,83.73
2023-03-11T03:52:15.381Z,83.25
2023-03-11T03:54:42.040Z,80.36
2023-03-11T03:57:08.959Z,80.14
2023-03-11T03:59:35.642Z,80.82
2023-03-11T04:02:02.273Z,82.16
2023-03-11T04:04:28.868Z,81.31
2023-03-11T04:06:55.351Z,81.94
2023-03-11T04:09:21.890Z,81.24
2023-03-11T04:11:48.376Z,80.87
2023-03-11T04:14:14.865Z,81.55
2023-03-11T04:16:41.471Z,82.09
2023-03-11T04:19:08.130Z,81.10
2023-03-11T04:21:34.732Z,82.07
2023-03-11T04:24:01.323Z,80.91
2023-03-11T04:26:28.603Z,81.52
2023-03-11T04:28:55.083Z,80.48
2023-03-11T04:31:21.645Z,79.67
2023-03-11T04:33:48.359Z,79.67
2023-03-11T04:36:14.919Z,79.60
2023-03-11T04:38:41.370Z,79.40
2023-03-11T04:41:08.221Z,79.00
2023-03-11T04:43:35.024Z,79.81
2023-03-11T04:46:01.583Z,79.67
2023-03-11T04:48:28.166Z,79.43
2023-03-11T04:50:55.555Z,80.42
2023-03-11T04:53:22.710Z,78.95
2023-03-11T04:55:50.485Z,80.79
2023-03-11T04:58:16.969Z,81.41
2023-03-11T05:00:43.436Z,80.63
2023-03-11T05:03:10.078Z,80.45
2023-03-11T05:05:36.546Z,80.75
2023-03-11T05:08:03.580Z,81.40
2023-03-11T05:10:31.850Z,80.55
2023-03-11T05:12:59.199Z,80.71
2023-03-11T05:15:25.773Z,81.22
2023-03-11T05:17:52.269Z,81.71
2023-03-11T05:20:18.833Z,82.06
2023-03-11T05:22:45.334Z,80.87
2023-03-11T05:25:11.764Z,79.92
2023-03-11T05:27:38.271Z,79.80
2023-03-11T05:30:05.203Z,80.44
2023-03-11T05:32:31.748Z,79.86
2023-03-11T05:34:58.223Z,81.53
2023-03-11T05:37:24.722Z,80.80
2023-03-11T05:39:52.252Z,79.83
2023-03-11T05:42:21.258Z,78.67
2023-03-11T05:44:47.970Z,78.28
2023-03-11T05:47:14.464Z,78.20
2023-03-11T05:49:40.905Z,78.75
2023-03-11T05:52:07.370Z,78.76
2023-03-11T05:54:33.882Z,79.75
2023-03-11T05:57:00.316Z,79.59
2023-03-11T05:59:26.794Z,80.26
2023-03-11T06:01:53.319Z,80.16
2023-03-11T06:04:20.073Z,80.11
2023-03-11T06:06:46.754Z,80.59
2023-03-11T06:09:14.659Z,81.08
2023-03-11T06:11:41.778Z,80.75
2023-03-11T06:14:11.689Z,80.65
2023-03-11T06:16:38.236Z,79.74
2023-03-11T06:19:04.871Z,79.71
2023-03-11T06:21:31.620Z,80.43
2023-03-11T06:23:58.173Z,80.76
2023-03-11T06:26:25.003Z,79.22
2023-03-11T06:28:52.619Z,80.68
2023-03-11T06:31:25.175Z,80.77
2023-03-11T06:33:51.988Z,79.51
2023-03-11T06:36:19.722Z,78.12
2023-03-11T06:38:46.693Z,78.27
2023-03-11T06:41:13.252Z,79.89
2023-03-11T06:43:39.772Z,79.39
2023-03-11T06:46:15.354Z,79.47
2023-03-11T06:48:42.068Z,79.59
2023-03-11T06:51:10.339Z,78.85
2023-03-11T06:53:36.819Z,79.12
2023-03-11T06:56:09.320Z,77.87
2023-03-11T06:58:37.314Z,75.39
2023-03-11T07:01:08.398Z,76.59
2023-03-11T07:03:34.984Z,76.86
2023-03-11T07:06:01.508Z,77.93
2023-03-11T07:08:28.254Z,77.22
2023-03-11T07:11:13.161Z,76.50
2023-03-11T07:13:39.750Z,76.77
2023-03-11T07:16:12.027Z,76.78
2023-03-11T07:18:38.839Z,76.57
2023-03-11T07:21:06.752Z,75.65
2023-03-11T07:23:34.032Z,76.17
2023-03-11T07:26:00.536Z,76.94
2023-03-11T07:28:28.176Z,75.80
2023-03-11T07:30:55.060Z,77.79
2023-03-11T07:33:24.086Z,76.52
2023-03-11T07:35:51.427Z,75.97
2023-03-11T07:38:19.800Z,77.38
2023-03-11T07:40:46.441Z,76.74
2023-03-11T07:43:12.939Z,75.72
2023-03-11T07:45:39.442Z,74.86
2023-03-11T07:48:06.213Z,74.53
2023-03-11T07:50:32.692Z,74.16
2023-03-11T07:52:59.163Z,75.05
2023-03-11T07:55:25.604Z,73.87
2023-03-11T07:57:52.251Z,73.45
2023-03-11T08:00:19.397Z,73.90
2023-03-11T08:02:46.030Z,73.84
2023-03-11T08:05:12.681Z,72.25
2023-03-11T08:07:39.349Z,72.24
2023-03-11T08:10:06.851Z,72.85
2023-03-11T08:12:33.333Z,72.61
2023-03-11T08:14:59.799Z,71.88
2023-03-11T08:17:26.280Z,72.33
2023-03-11T08:19:52.967Z,72.26
2023-03-11T08:22:19.431Z,70.38
2023-03-11T08:24:45.865Z,71.50
2023-03-11T08:27:12.404Z,71.21
2023-03-11T08:29:38.962Z,70.89
2023-03-11T08:32:05.823Z,69.96
2023-03-11T08:34:32.971Z,70.31
2023-03-11T08:36:59.647Z,70.01
2023-03-11T08:39:26.160Z,69.33
2023-03-11T08:41:52.575Z,68.20
2023-03-11T08:44:19.034Z,67.43
2023-03-11T08:46:45.780Z,69.27
2023-03-11T08:49:12.330Z,69.36
2023-03-11T08:51:38.851Z,68.61
2023-03-11T08:54:05.525Z,68.81
2023-03-11T08:56:31.979Z,68.66
2023-03-11T08:58:58.481Z,68.61
2023-03-11T09:01:25.705Z,67.02
2023-03-11T09:03:52.582Z,67.21
2023-03-11T09:06:19.306Z,66.21
2023-03-11T09:08:46.912Z,66.85
2023-03-11T09:11:13.821Z,65.82
2023-03-11T09:13:41.483Z,65.49
2023-03-11T09:16:16.372Z,64.87
2023-03-11T09:18:43.203Z,64.95
2023-03-11T09:21:10.258Z,64.35
2023-03-11T09:23:37.106Z,65.42
2023-03-11T09:26:03.934Z,65.32
2023-03-11T09:28:30.446Z,66.01
2023-03-11T09:30:57.440Z,66.32
2023-03-11T09:33:24.091Z,66.50
2023-03-11T09:35:50.561Z,66.22
2023-03-11T09:38:17.058Z,65.56
2023-03-11T09:41:00.234Z,66.01
2023-03-11T09:43:51.767Z,65.00
2023-03-11T09:46:35.004Z,65.68
2023-03-11T09:49:33.748Z,64.13
2023-03-11T09:52:11.971Z,64.86
2023-03-11T09:54:56.955Z,65.30
2023-03-11T09:57:26.802Z,66.27
2023-03-11T09:59:53.412Z,65.56
2023-03-11T10:02:22.940Z,65.27
2023-03-11T10:05:04.253Z,64.53
2023-03-11T10:07:38.227Z,65.17
2023-03-11T10:10:06.120Z,63.80
2023-03-11T10:12:51.228Z,64.45
2023-03-11T10:15:40.474Z,64.17
2023-03-11T10:18:44.138Z,62.64
2023-03-11T10:21:33.742Z,64.63
2023-03-11T10:24:21.734Z,66.42
2023-03-11T10:26:52.124Z,64.51
2023-03-11T10:29:31.142Z,63.94
2023-03-11T10:32:16.231Z,64.36
2023-03-11T10:34:48.144Z,63.64
2023-03-11T10:37:19.410Z,63.91
2023-03-11T10:39:48.299Z,65.05
2023-03-11T10:42:24.690Z,63.11
2023-03-11T10:44:52.606Z,62.27
2023-03-11T10:47:23.092Z,60.50
2023-03-11T10:49:50.351Z,62.21
2023-03-11T10:52:16.851Z,62.93
2023-03-11T10:54:46.620Z,59.73
2023-03-11T10:57:33.435Z,58.96
2023-03-11T11:00:01.988Z,57.09
2023-03-11T11:02:34.255Z,57.67
2023-03-11T11:05:20.095Z,61.93
2023-03-11T11:07:53.355Z,60.46
2023-03-11T11:10:25.088Z,60.57
2023-03-11T11:12:56.348Z,55.73
2023-03-11T11:15:37.237Z,57.04
2023-03-11T11:18:06.927Z,58.26
2023-03-11T11:20:34.041Z,57.00
2023-03-11T11:23:02.188Z,57.00
2023-03-11T11:25:35.526Z,57.11
2023-03-11T11:28:13.204Z,58.39
2023-03-11T11:30:59.353Z,57.57
2023-03-11T11:33:49.416Z,56.73
2023-03-11T11:36:16.447Z,57.03
2023-03-11T11:38:43.251Z,57.53
2023-03-11T11:41:14.809Z,57.83
2023-03-11T11:43:59.463Z,58.61
2023-03-11T11:46:38.473Z,59.03
2023-03-11T11:49:31.781Z,56.60
2023-03-11T11:52:11.935Z,56.06
2023-03-11T11:54:54.475Z,53.96
2023-03-11T11:57:22.274Z,54.76
2023-03-11T11:59:48.846Z,54.98
2023-03-11T12:02:33.922Z,54.29
2023-03-11T12:05:23.824Z,53.45
2023-03-11T12:08:12.297Z,53.47
2023-03-11T12:10:58.038Z,53.60
2023-03-11T12:13:33.566Z,52.76
2023-03-11T12:16:06.386Z,53.91
2023-03-11T12:18:35.345Z,52.75
2023-03-11T12:21:27.509Z,53.37
2023-03-11T12:24:06.189Z,54.05
2023-03-11T12:26:35.829Z,51.96
2023-03-11T12:29:22.951Z,52.68
2023-03-11T12:31:49.774Z,52.78
2023-03-11T12:34:19.882Z,51.88
2023-03-11T12:36:47.257Z,51.17
2023-03-11T12:39:28.827Z,49.80
2023-03-11T12:42:10.921Z,51.24
2023-03-11T12:44:38.761Z,52.07
2023-03-11T12:47:08.291Z,53.61
2023-03-11T12:49:37.127Z,52.61
2023-03-11T12:52:13.310Z,52.45
2023-03-11T12:54:41.466Z,52.49
2023-03-11T12:57:17.362Z,54.16
2023-03-11T12:59:52.839Z,53.73
2023-03-11T13:02:38.107Z,54.30
2023-03-11T13:05:16.795Z,55.17
2023-03-11T13:07:47.809Z,55.70
2023-03-11T13:10:17.976Z,56.49
2023-03-11T13:12:49.327Z,55.81
2023-03-11T13:15:19.806Z,54.23
2023-03-11T13:18:14.622Z,55.42
2023-03-11T13:20:44.322Z,52.71
2023-03-11T13:23:13.927Z,53.61
2023-03-11T13:25:43.675Z,54.46
2023-03-11T13:28:33.987Z,55.05
2023-03-11T13:31:38.411Z,57.26
2023-03-11T13:34:20.530Z,58.04
2023-03-11T13:37:17.501Z,57.73
2023-03-11T13:40:00.175Z,55.49
2023-03-11T13:42:38.318Z,55.16
2023-03-11T13:45:07.582Z,54.47
2023-03-11T13:47:35.760Z,54.48
2023-03-11T13:50:12.732Z,54.70
2023-03-11T13:52:47.616Z,54.69
2023-03-11T13:55:52.539Z,53.58
2023-03-11T13:58:24.316Z,54.18
2023-03-11T14:00:55.816Z,53.04
2023-03-11T14:03:25.374Z,54.71
2023-03-11T14:06:03.380Z,55.64
2023-03-11T14:08:32.394Z,54.98
2023-03-11T14:10:59.959Z,56.02
2023-03-11T14:13:38.725Z,57.01
2023-03-11T14:16:21.419Z,56.89
2023-03-11T14:18:50.235Z,55.80
2023-03-11T14:21:19.724Z,56.20
2023-03-11T14:23:48.768Z,57.58
2023-03-11T14:26:30.354Z,56.90
2023-03-11T14:29:02.546Z,57.41
2023-03-11T14:31:37.832Z,59.09
2023-03-11T14:34:13.924Z,61.96
2023-03-11T14:37:10.750Z,62.86
2023-03-11T14:39:39.297Z,66.39
2023-03-11T14:42:26.525Z,69.87
2023-03-11T14:45:17.892Z,70.88
2023-03-11T14:48:12.510Z,71.58
2023-03-11T14:50:39.502Z,73.29
2023-03-11T14:53:24.354Z,74.20
2023-03-11T14:55:53.643Z,72.84
2023-03-11T14:58:35.784Z,73.09
2023-03-11T15:01:18.028Z,72.79
2023-03-11T15:04:06.268Z,71.41
2023-03-11T15:06:33.612Z,70.68
2023-03-11T15:09:02.769Z,70.25
2023-03-11T15:11:29.574Z,69.21
2023-03-11T15:14:14.788Z,68.79
2023-03-11T15:16:41.314Z,68.76
2023-03-11T15:19:29.803Z,67.27
2023-03-11T15:21:59.878Z,66.43
2023-03-11T15:24:28.738Z,65.29
2023-03-11T15:27:01.971Z,64.49
2023-03-11T15:29:30.016Z,65.47
2023-03-11T15:31:59.984Z,66.78
2023-03-11T15:34:32.058Z,67.25
2023-03-11T15:37:19.347Z,67.09
2023-03-11T15:39:47.374Z,67.74
2023-03-11T15:42:18.635Z,66.10
2023-03-11T15:45:12.058Z,66.10
2023-03-11T15:47:39.357Z,65.35
2023-03-11T15:50:40.138Z,65.59
2023-03-11T15:53:13.836Z,66.11
2023-03-11T15:55:40.651Z,65.31
2023-03-11T15:58:08.457Z,64.48
2023-03-11T16:00:36.620Z,64.88
2023-03-11T16:03:04.552Z,65.17
2023-03-11T16:05:31.380Z,64.17
2023-03-11T16:07:58.130Z,64.42
2023-03-11T16:10:25.848Z,63.68
2023-03-11T16:12:52.822Z,63.82
2023-03-11T16:15:24.929Z,63.66
2023-03-11T16:17:52.953Z,62.76
2023-03-11T16:20:21.408Z,64.27
2023-03-11T16:22:49.790Z,64.32
2023-03-11T16:25:33.459Z,63.64
2023-03-11T16:28:00.723Z,65.40
2023-03-11T16:30:29.495Z,66.11
2023-03-11T16:32:56.431Z,66.57
2023-03-11T16:35:23.537Z,66.25
2023-03-11T16:37:50.670Z,66.36
2023-03-11T16:40:20.074Z,66.50
2023-03-11T16:42:47.419Z,67.37
2023-03-11T16:45:16.247Z,66.28
2023-03-11T16:47:43.088Z,67.05
2023-03-11T16:50:10.836Z,66.56
2023-03-11T16:52:37.908Z,66.42
2023-03-11T16:55:05.534Z,67.74
2023-03-11T16:57:32.406Z,66.40
2023-03-11T16:59:58.940Z,68.89
2023-03-11T17:02:25.564Z,69.31
2023-03-11T17:04:52.133Z,68.48
2023-03-11T17:07:18.749Z,68.91
2023-03-11T17:09:45.220Z,71.72
2023-03-11T17:12:15.672Z,72.43
2023-03-11T17:14:42.421Z,71.95
2023-03-11T17:17:08.912Z,73.85
2023-03-11T17:19:35.675Z,78.53
2023-03-11T17:22:02.301Z,82.57
2023-03-11T17:24:29.795Z,84.18
2023-03-11T17:26:56.397Z,84.79
2023-03-11T17:29:23.138Z,84.64
2023-03-11T17:31:49.893Z,83.09
2023-03-11T17:34:16.741Z,84.40
2023-03-11T17:36:43.257Z,84.49
2023-03-11T17:39:09.804Z,81.57
2023-03-11T17:41:36.884Z,80.28
2023-03-11T17:44:03.499Z,79.20
2023-03-11T17:46:30.089Z,78.96
2023-03-11T17:48:56.880Z,80.42
2023-03-11T17:51:25.808Z,81.14
2023-03-11T17:53:54.506Z,80.52
2023-03-11T17:56:21.670Z,81.11
2023-03-11T17:58:49.267Z,81.49
2023-03-11T18:01:23.733Z,79.09
2023-03-11T18:03:50.367Z,79.91
2023-03-11T18:06:18.347Z,78.78
2023-03-11T18:08:45.088Z,79.13
2023-03-11T18:11:18.661Z,81.38
2023-03-11T18:13:45.798Z,79.38
2023-03-11T18:16:15.478Z,80.19
2023-03-11T18:18:44.581Z,81.38
2023-03-11T18:21:13.706Z,77.70
2023-03-11T18:23:40.633Z,79.34
2023-03-11T18:26:08.939Z,78.79
2023-03-11T18:28:36.050Z,79.38
2023-03-11T18:31:14.830Z,79.31
2023-03-11T18:33:42.988Z,78.67
2023-03-11T18:36:13.608Z,77.77
2023-03-11T18:38:40.128Z,77.98
2023-03-11T18:41:06.579Z,77.38
2023-03-11T18:43:33.116Z,77.20
2023-03-11T18:46:00.642Z,75.02
2023-03-11T18:48:27.655Z,76.18
2023-03-11T18:50:55.009Z,76.72
2023-03-11T18:53:21.879Z,76.12
2023-03-11T18:55:48.593Z,75.20
2023-03-11T18:58:15.120Z,76.77
2023-03-11T19:00:41.599Z,77.19
2023-03-11T19:03:13.579Z,77.39
2023-03-11T19:05:40.031Z,76.71
2023-03-11T19:08:06.622Z,77.36
2023-03-11T19:10:33.102Z,75.23
2023-03-11T19:12:59.592Z,77.11
2023-03-11T19:15:26.190Z,79.09
2023-03-11T19:18:05.840Z,77.51
2023-03-11T19:20:33.377Z,78.21
2023-03-11T19:22:59.892Z,79.46
2023-03-11T19:25:28.002Z,79.56
2023-03-11T19:27:55.277Z,79.19
2023-03-11T19:30:22.090Z,80.84
2023-03-11T19:32:52.665Z,81.31
2023-03-11T19:35:24.948Z,81.00
2023-03-11T19:37:57.130Z,80.91
2023-03-11T19:40:24.971Z,80.87
2023-03-11T19:42:51.717Z,80.51
2023-03-11T19:45:18.244Z,81.61
2023-03-11T19:47:51.596Z,81.93
2023-03-11T19:50:18.707Z,82.75
2023-03-11T19:52:45.675Z,81.84
2023-03-11T19:55:12.291Z,81.32
2023-03-11T19:57:38.744Z,81.19
2023-03-11T20:00:05.988Z,80.51
2023-03-11T20:02:32.651Z,80.75
2023-03-11T20:04:59.256Z,81.38
2023-03-11T20:07:25.865Z,80.87
2023-03-11T20:09:52.414Z,81.36
2023-03-11T20:12:20.554Z,80.26
2023-03-11T20:14:47.057Z,79.71
2023-03-11T20:17:14.688Z,79.72
2023-03-11T20:19:41.408Z,77.87
2023-03-11T20:22:07.897Z,78.19
2023-03-11T20:24:34.557Z,79.18
2023-03-11T20:27:01.176Z,79.12
2023-03-11T20:29:27.660Z,80.08
2023-03-11T20:31:54.327Z,79.68
2023-03-11T20:34:20.892Z,79.91
2023-03-11T20:36:48.694Z,78.04
2023-03-11T20:39:15.233Z,80.17
2023-03-11T20:41:41.986Z,81.19
2023-03-11T20:44:12.169Z,79.97
2023-03-11T20:46:38.690Z,79.75
2023-03-11T20:49:05.440Z,77.46
2023-03-11T20:51:32.075Z,77.90
2023-03-11T20:53:58.842Z,78.12
2023-03-11T20:56:26.782Z,77.83
2023-03-11T20:58:55.824Z,76.02
2023-03-11T21:01:25.389Z,76.61
2023-03-11T21:03:57.078Z,76.03
2023-03-11T21:06:26.438Z,76.12
2023-03-11T21:08:54.542Z,77.14
2023-03-11T21:11:21.474Z,75.71
2023-03-11T21:13:47.930Z,78.13
2023-03-11T21:16:16.857Z,76.75
2023-03-11T21:18:44.483Z,78.13
2023-03-11T21:21:12.587Z,78.83
2023-03-11T21:23:40.994Z,79.22
2023-03-11T21:26:07.924Z,78.60
2023-03-11T21:28:35.560Z,76.65
2023-03-11T21:31:09.122Z,76.68
2023-03-11T21:33:36.201Z,76.60
2023-03-11T21:36:04.549Z,77.57
2023-03-11T21:38:32.622Z,76.35
2023-03-11T21:41:26.243Z,76.79
2023-03-11T21:43:55.243Z,76.72
2023-03-11T21:46:24.940Z,76.35
2023-03-11T21:48:52.155Z,75.14
2023-03-11T21:51:20.102Z,76.24
2023-03-11T21:53:47.505Z,78.52
2023-03-11T21:56:15.201Z,76.44
2023-03-11T21:58:42.101Z,77.27
2023-03-11T22:01:10.059Z,79.43
2023-03-11T22:03:37.452Z,79.76
2023-03-11T22:06:07.034Z,79.88
2023-03-11T22:08:33.963Z,80.58
2023-03-11T22:11:00.880Z,81.23
2023-03-11T22:13:27.517Z,82.31
2023-03-11T22:15:54.186Z,84.49
2023-03-11T22:18:23.591Z,83.14
2023-03-11T22:20:50.617Z,84.14
2023-03-11T22:23:17.254Z,82.94
2023-03-11T22:25:43.903Z,82.45
2023-03-11T22:28:13.158Z,82.08
2023-03-11T22:30:39.785Z,80.92
2023-03-11T22:33:07.079Z,79.36
2023-03-11T22:35:34.708Z,79.19
2023-03-11T22:38:01.657Z,76.95
2023-03-11T22:40:28.400Z,75.73
2023-03-11T22:42:55.285Z,75.24
2023-03-11T22:45:23.141Z,74.62
2023-03-11T22:47:53.336Z,74.70
2023-03-11T22:50:20.409Z,73.84
2023-03-11T22:52:46.920Z,74.80
2023-03-11T22:55:13.408Z,75.03
2023-03-11T22:57:39.847Z,74.53
2023-03-11T23:00:17.274Z,73.92
2023-03-11T23:02:48.256Z,74.04
2023-03-11T23:05:16.061Z,73.47
2023-03-11T23:07:43.571Z,73.74
2023-03-11T23:10:11.936Z,73.97
2023-03-11T23:12:38.826Z,73.75
2023-03-11T23:15:07.961Z,74.00
2023-03-11T23:17:35.062Z,74.74
2023-03-11T23:20:01.942Z,73.59
2023-03-11T23:22:28.472Z,74.54
2023-03-11T23:24:54.938Z,74.13
2023-03-11T23:27:22.277Z,75.18
2023-03-11T23:29:51.141Z,75.27
2023-03-11T23:32:24.117Z,74.69
2023-03-11T23:34:50.659Z,75.25
2023-03-11T23:37:17.180Z,74.89
2023-03-11T23:39:43.648Z,74.41
2023-03-11T23:42:24.529Z,74.29
2023-03-11T23:44:53.705Z,74.69
2023-03-11T23:47:20.605Z,73.75
2023-03-11T23:49:47.069Z,74.20
2023-03-11T23:52:13.587Z,73.88
2023-03-11T23:54:40.036Z,74.47
2023-03-11T23:57:06.503Z,75.07
2023-03-11T23:59:33.028Z,74.41
